createdAt,value
2018-07-23T00:00:16.231Z,8.37
2018-07-23T00:02:45.500Z,8.23
2018-07-23T00:05:14.700Z,8.30
2018-07-23T00:07:43.813Z,8.90
2018-07-23T00:10:12.629Z,8.33
2018-07-23T00:12:41.751Z,6.27
2018-07-23T00:15:11.704Z,8.63
2018-07-23T00:17:40.892Z,10.20
2018-07-23T00:20:10.155Z,10.00
2018-07-23T00:22:39.290Z,10.57
2018-07-23T00:25:08.461Z,13.10
2018-07-23T00:27:37.580Z,13.60
2018-07-23T00:30:06.836Z,13.30
2018-07-23T00:32:36.008Z,12.53
2018-07-23T00:35:05.199Z,12.57
2018-07-23T00:37:34.344Z,10.37
2018-07-23T00:40:03.597Z,9.60
2018-07-23T00:42:32.709Z,11.27
2018-07-23T00:45:02.515Z,10.30
2018-07-23T00:47:31.630Z,9.23
2018-07-23T00:50:00.753Z,10.43
2018-07-23T00:52:29.948Z,11.40
2018-07-23T00:54:59.238Z,12.60
2018-07-23T00:57:28.403Z,14.13
2018-07-23T00:59:57.663Z,13.53
2018-07-23T01:02:26.917Z,14.73
2018-07-23T01:04:56.204Z,15.70
2018-07-23T01:07:25.434Z,17.50
2018-07-23T01:09:54.542Z,15.80
2018-07-23T01:12:27.179Z,15.93
2018-07-23T01:14:56.351Z,16.40
2018-07-23T01:17:25.483Z,16.87
2018-07-23T01:19:56.616Z,13.93
2018-07-23T01:22:26.833Z,13.97
2018-07-23T01:24:57.055Z,11.40
2018-07-23T01:27:26.372Z,11.70
2018-07-23T01:29:55.584Z,11.20
2018-07-23T01:32:24.727Z,12.73
2018-07-23T01:34:53.870Z,15.03
2018-07-23T01:37:23.008Z,14.83
2018-07-23T01:39:52.307Z,15.23
2018-07-23T01:42:22.061Z,16.13
2018-07-23T01:44:51.192Z,16.93
2018-07-23T01:47:20.314Z,16.23
2018-07-23T01:49:49.489Z,16.47
2018-07-23T01:52:18.687Z,16.23
2018-07-23T01:54:47.856Z,14.97
2018-07-23T01:57:17.036Z,15.83
2018-07-23T01:59:46.167Z,16.40
2018-07-23T02:02:15.347Z,16.40
2018-07-23T02:04:44.594Z,16.20
2018-07-23T02:07:13.739Z,17.60
2018-07-23T02:09:43.777Z,18.03
2018-07-23T02:12:19.430Z,18.20
2018-07-23T02:14:48.573Z,18.20
2018-07-23T02:17:18.288Z,18.73
2018-07-23T02:19:47.404Z,18.63
2018-07-23T02:22:16.604Z,19.43
2018-07-23T02:24:45.820Z,18.57
2018-07-23T02:27:14.996Z,17.83
2018-07-23T02:29:44.252Z,14.83
2018-07-23T02:32:13.373Z,14.57
2018-07-23T02:34:42.542Z,13.67
2018-07-23T02:37:11.668Z,6.70
2018-07-23T02:39:43.726Z,6.07
2018-07-23T02:42:12.907Z,12.23
2018-07-23T02:44:42.037Z,13.80
2018-07-23T02:47:11.232Z,14.20
2018-07-23T02:49:40.435Z,6.60
2018-07-23T02:52:09.643Z,6.50
2018-07-23T02:54:38.816Z,6.67
2018-07-23T02:57:08.341Z,3.90
2018-07-23T02:59:37.604Z,4.60
2018-07-23T03:02:06.740Z,5.63
2018-07-23T03:04:36.416Z,4.53
2018-07-23T03:07:05.538Z,11.23
2018-07-23T03:09:34.698Z,22.87
2018-07-23T03:12:03.843Z,26.20
2018-07-23T03:14:33.056Z,30.33
2018-07-23T03:17:02.182Z,29.60
2018-07-23T03:19:31.373Z,26.27
2018-07-23T03:22:00.566Z,20.40
2018-07-23T03:24:30.541Z,15.93
2018-07-23T03:26:59.683Z,17.10
2018-07-23T03:29:28.822Z,17.30
2018-07-23T03:31:57.992Z,12.07
2018-07-23T03:34:27.212Z,18.57
2018-07-23T03:36:56.344Z,20.67
2018-07-23T03:39:25.510Z,15.83
2018-07-23T03:41:54.658Z,17.33
2018-07-23T03:44:23.915Z,13.53
2018-07-23T03:46:53.076Z,18.97
2018-07-23T03:49:22.975Z,14.97
2018-07-23T03:51:52.124Z,8.67
2018-07-23T03:54:21.247Z,10.03
2018-07-23T03:56:50.404Z,11.67
2018-07-23T03:59:19.543Z,13.67
2018-07-23T04:01:48.762Z,14.57
2018-07-23T04:04:18.370Z,14.77
2018-07-23T04:06:49.009Z,15.80
2018-07-23T04:09:18.115Z,16.13
2018-07-23T04:11:47.294Z,17.90
2018-07-23T04:14:16.557Z,15.70
2018-07-23T04:16:46.351Z,17.03
2018-07-23T04:19:15.556Z,18.33
2018-07-23T04:21:44.711Z,20.50
2018-07-23T04:24:14.085Z,20.83
2018-07-23T04:26:43.240Z,19.60
2018-07-23T04:29:12.553Z,21.27
2018-07-23T04:31:41.737Z,20.30
2018-07-23T04:34:10.963Z,20.63
2018-07-23T04:36:40.128Z,22.00
2018-07-23T04:39:09.538Z,16.97
2018-07-23T04:41:38.626Z,16.37
2018-07-23T04:44:07.816Z,15.93
2018-07-23T04:46:36.975Z,20.50
2018-07-23T04:49:05.804Z,23.40
2018-07-23T04:51:34.855Z,24.17
2018-07-23T04:54:04.036Z,23.70
2018-07-23T04:56:33.176Z,25.53
2018-07-23T04:59:02.427Z,28.03
2018-07-23T05:01:31.770Z,25.53
2018-07-23T05:04:00.928Z,25.00
2018-07-23T05:06:30.058Z,31.67
2018-07-23T05:08:59.346Z,32.60
2018-07-23T05:11:28.621Z,34.00
2018-07-23T05:13:57.856Z,34.27
2018-07-23T05:16:27.028Z,34.90
2018-07-23T05:18:56.289Z,35.50
2018-07-23T05:21:25.438Z,36.60
2018-07-23T05:23:54.543Z,37.53
2018-07-23T05:26:23.710Z,40.87
2018-07-23T05:28:52.885Z,39.83
2018-07-23T05:31:22.111Z,37.60
2018-07-23T05:33:51.281Z,37.80
2018-07-23T05:36:20.437Z,39.13
2018-07-23T05:38:49.755Z,37.93
2018-07-23T05:41:18.924Z,38.83
2018-07-23T05:43:48.062Z,39.33
2018-07-23T05:46:17.220Z,39.23
2018-07-23T05:48:46.341Z,40.50
2018-07-23T05:51:15.468Z,37.23
2018-07-23T05:53:44.641Z,37.40
2018-07-23T05:56:13.822Z,38.80
2018-07-23T05:58:43.017Z,38.93
2018-07-23T06:01:11.891Z,38.87
2018-07-23T06:03:40.982Z,36.83
2018-07-23T06:06:10.289Z,32.63
2018-07-23T06:08:39.499Z,35.60
2018-07-23T06:11:08.725Z,31.77
2018-07-23T06:13:37.939Z,33.10
2018-07-23T06:16:07.109Z,32.03
2018-07-23T06:18:36.293Z,32.23
2018-07-23T06:21:05.475Z,33.97
2018-07-23T06:23:34.820Z,29.20
2018-07-23T06:26:04.067Z,16.10
2018-07-23T06:28:33.250Z,18.23
2018-07-23T06:31:02.402Z,20.03
2018-07-23T06:33:32.313Z,17.53
2018-07-23T06:36:01.512Z,20.73
2018-07-23T06:38:30.708Z,22.73
2018-07-23T06:40:59.917Z,21.63
2018-07-23T06:43:29.068Z,23.03
2018-07-23T06:45:58.250Z,21.20
2018-07-23T06:48:27.369Z,17.97
2018-07-23T06:50:56.511Z,18.83
2018-07-23T06:53:25.741Z,18.97
2018-07-23T06:55:54.972Z,18.17
2018-07-23T06:58:24.179Z,16.73
2018-07-23T07:00:53.362Z,17.40
2018-07-23T07:03:22.608Z,17.33
2018-07-23T07:05:51.677Z,15.77
2018-07-23T07:08:20.893Z,16.03
2018-07-23T07:10:50.057Z,14.57
2018-07-23T07:13:19.184Z,14.80
2018-07-23T07:15:48.314Z,14.03
2018-07-23T07:18:17.477Z,13.03
2018-07-23T07:20:46.641Z,17.13
2018-07-23T07:23:16.032Z,15.97
2018-07-23T07:25:45.163Z,16.43
2018-07-23T07:28:14.289Z,14.57
2018-07-23T07:30:43.071Z,15.97
2018-07-23T07:33:12.188Z,15.73
2018-07-23T07:35:41.295Z,14.47
2018-07-23T07:38:10.513Z,12.70
2018-07-23T07:40:40.290Z,14.27
2018-07-23T07:43:09.533Z,15.73
2018-07-23T07:45:38.807Z,13.13
2018-07-23T07:48:08.004Z,12.37
2018-07-23T07:50:37.167Z,13.37
2018-07-23T07:53:06.292Z,12.93
2018-07-23T07:55:35.448Z,15.30
2018-07-23T07:58:04.646Z,12.50
2018-07-23T08:00:33.953Z,14.20
2018-07-23T08:03:02.780Z,14.07
2018-07-23T08:05:31.876Z,13.00
2018-07-23T08:08:01.062Z,14.10
2018-07-23T08:10:30.312Z,12.80
2018-07-23T08:12:59.449Z,12.10
2018-07-23T08:15:28.620Z,12.20
2018-07-23T08:17:57.812Z,12.83
2018-07-23T08:20:26.943Z,13.30
2018-07-23T08:22:56.138Z,13.10
2018-07-23T08:25:25.977Z,13.97
2018-07-23T08:27:55.257Z,14.60
2018-07-23T08:30:24.328Z,13.10
2018-07-23T08:32:53.553Z,13.10
2018-07-23T08:35:22.836Z,10.63
2018-07-23T08:37:52.072Z,12.30
2018-07-23T08:40:21.269Z,13.53
2018-07-23T08:42:50.472Z,11.77
2018-07-23T08:45:19.635Z,10.70
2018-07-23T08:47:48.735Z,8.97
2018-07-23T08:50:17.963Z,8.80
2018-07-23T08:52:47.135Z,11.27
2018-07-23T08:55:16.427Z,12.83
2018-07-23T08:57:45.613Z,12.53
2018-07-23T09:00:14.827Z,10.40
2018-07-23T09:02:44.036Z,12.03
2018-07-23T09:05:13.984Z,11.53
2018-07-23T09:07:43.116Z,13.50
2018-07-23T09:10:12.537Z,11.30
2018-07-23T09:12:41.677Z,12.83
2018-07-23T09:15:11.403Z,10.83
2018-07-23T09:17:41.099Z,11.83
2018-07-23T09:20:10.313Z,13.03
2018-07-23T09:22:39.410Z,11.57
2018-07-23T09:25:08.573Z,10.90
2018-07-23T09:27:37.715Z,11.87
2018-07-23T09:30:11.614Z,9.53
2018-07-23T09:32:40.861Z,9.70
2018-07-23T09:35:10.044Z,8.50
2018-07-23T09:37:39.220Z,9.30
2018-07-23T09:40:08.368Z,8.03
2018-07-23T09:42:37.555Z,9.90
2018-07-23T09:45:06.707Z,9.87
2018-07-23T09:47:35.857Z,10.33
2018-07-23T09:50:04.656Z,10.00
2018-07-23T09:52:33.757Z,9.67
2018-07-23T09:55:02.979Z,10.20
2018-07-23T09:57:32.132Z,9.03
2018-07-23T10:00:00.976Z,8.27
2018-07-23T10:02:30.029Z,7.00
2018-07-23T10:04:59.189Z,8.30
2018-07-23T10:07:28.449Z,7.43
2018-07-23T10:09:57.586Z,6.90
2018-07-23T10:12:26.812Z,6.80
2018-07-23T10:14:56.020Z,6.97
2018-07-23T10:17:25.946Z,7.60
2018-07-23T10:19:55.136Z,7.43
2018-07-23T10:22:24.380Z,6.50
2018-07-23T10:24:53.487Z,7.90
2018-07-23T10:27:22.579Z,8.50
2018-07-23T10:29:51.803Z,7.40
2018-07-23T10:32:20.990Z,6.90
2018-07-23T10:34:50.256Z,8.07
2018-07-23T10:37:19.424Z,6.80
2018-07-23T10:39:48.600Z,6.03
2018-07-23T10:42:17.780Z,5.50
2018-07-23T10:44:47.642Z,6.10
2018-07-23T10:47:16.785Z,5.22
2018-07-23T10:49:45.963Z,5.47
2018-07-23T10:52:15.090Z,6.53
2018-07-23T10:54:44.352Z,6.70
2018-07-23T10:57:13.886Z,6.05
2018-07-23T10:59:43.081Z,5.60
2018-07-23T11:02:12.289Z,6.33
2018-07-23T11:04:41.517Z,5.87
2018-07-23T11:07:10.799Z,7.58
2018-07-23T11:09:39.876Z,6.95
2018-07-23T11:12:09.117Z,7.03
2018-07-23T11:14:38.305Z,8.53
2018-07-23T11:17:07.511Z,6.20
2018-07-23T11:19:36.652Z,7.03
2018-07-23T11:22:05.864Z,6.05
2018-07-23T11:24:35.071Z,5.42
2018-07-23T11:27:04.221Z,6.55
2018-07-23T11:29:33.377Z,6.35
2018-07-23T11:32:02.673Z,6.37
2018-07-23T11:34:31.850Z,5.87
2018-07-23T11:37:00.995Z,5.75
2018-07-23T11:39:30.971Z,7.17
2018-07-23T11:42:00.159Z,8.90
2018-07-23T11:44:29.341Z,7.58
2018-07-23T11:46:58.579Z,7.58
2018-07-23T11:49:27.828Z,8.10
2018-07-23T11:51:57.144Z,8.50
2018-07-23T11:54:26.338Z,7.65
2018-07-23T11:56:55.532Z,7.30
2018-07-23T11:59:24.716Z,7.60
2018-07-23T12:01:54.285Z,7.60
2018-07-23T12:04:23.057Z,9.05
2018-07-23T12:06:52.046Z,11.30
2018-07-23T12:09:21.282Z,10.58
2018-07-23T12:11:50.542Z,10.65
2018-07-23T12:14:20.146Z,9.00
2018-07-23T12:16:49.368Z,10.32
2018-07-23T12:19:18.547Z,9.80
2018-07-23T12:21:47.733Z,11.43
2018-07-23T12:24:16.913Z,10.85
2018-07-23T12:26:46.092Z,10.88
2018-07-23T12:29:15.238Z,9.85
2018-07-23T12:31:44.395Z,10.30
2018-07-23T12:34:13.546Z,11.55
2018-07-23T12:36:42.731Z,10.50
2018-07-23T12:39:12.946Z,9.30
2018-07-23T12:41:42.635Z,10.20
2018-07-23T12:44:12.042Z,8.85
2018-07-23T12:46:41.227Z,8.75
2018-07-23T12:49:10.432Z,8.50
2018-07-23T12:51:40.030Z,8.75
2018-07-23T12:54:09.270Z,9.73
2018-07-23T12:56:38.472Z,8.58
2018-07-23T12:59:07.704Z,7.65
2018-07-23T13:01:36.912Z,8.93
2018-07-23T13:04:06.105Z,7.80
2018-07-23T13:06:35.336Z,7.47
2018-07-23T13:09:07.700Z,7.45
2018-07-23T13:11:37.480Z,7.58
2018-07-23T13:14:06.831Z,7.83
2018-07-23T13:16:36.481Z,7.75
2018-07-23T13:19:05.815Z,7.47
2018-07-23T13:21:34.929Z,6.83
2018-07-23T13:24:04.235Z,6.95
2018-07-23T13:26:33.403Z,7.17
2018-07-23T13:29:02.753Z,7.15
2018-07-23T13:31:31.964Z,7.20
2018-07-23T13:34:01.255Z,7.08
2018-07-23T13:36:30.446Z,8.58
2018-07-23T13:38:59.645Z,7.95
2018-07-23T13:41:28.824Z,13.08
2018-07-23T13:43:57.987Z,7.00
2018-07-23T13:46:27.160Z,11.70
2018-07-23T13:48:57.089Z,6.72
2018-07-23T13:51:26.224Z,7.05
2018-07-23T13:53:55.589Z,6.55
2018-07-23T13:56:25.207Z,6.30
2018-07-23T13:58:54.369Z,6.60
2018-07-23T14:01:23.530Z,6.50
2018-07-23T14:03:52.980Z,7.00
2018-07-23T14:06:22.465Z,6.83
2018-07-23T14:08:52.466Z,25.35
2018-07-23T14:11:21.705Z,6.40
2018-07-23T14:13:50.886Z,5.60
2018-07-23T14:16:20.088Z,6.62
2018-07-23T14:18:49.278Z,5.72
2018-07-23T14:21:18.522Z,6.20
2018-07-23T14:23:47.782Z,7.37
2018-07-23T14:26:17.033Z,5.80
2018-07-23T14:28:46.192Z,6.58
2018-07-23T14:31:15.404Z,7.15
2018-07-23T14:33:45.101Z,6.37
2018-07-23T14:36:14.377Z,5.50
2018-07-23T14:38:43.501Z,5.90
2018-07-23T14:41:12.840Z,5.22
2018-07-23T14:43:42.037Z,5.42
2018-07-23T14:46:11.152Z,4.80
2018-07-23T14:48:40.276Z,5.20
2018-07-23T14:51:09.541Z,5.00
2018-07-23T14:53:38.727Z,5.03
2018-07-23T14:56:08.687Z,4.58
2018-07-23T14:58:37.836Z,5.20
2018-07-23T15:01:07.048Z,4.75
2018-07-23T15:03:36.245Z,5.00
2018-07-23T15:06:05.460Z,4.55
2018-07-23T15:08:34.337Z,4.87
2018-07-23T15:11:03.414Z,4.00
2018-07-23T15:13:32.612Z,4.95
2018-07-23T15:16:01.751Z,5.30
2018-07-23T15:18:30.914Z,4.75
2018-07-23T15:21:00.651Z,5.65
2018-07-23T15:23:29.831Z,5.60
2018-07-23T15:25:59.518Z,6.40
2018-07-23T15:28:28.733Z,5.33
2018-07-23T15:30:58.008Z,5.50
2018-07-23T15:33:27.169Z,5.10
2018-07-23T15:35:56.340Z,5.47
2018-07-23T15:38:25.594Z,5.90
2018-07-23T15:40:55.878Z,7.08
2018-07-23T15:43:25.089Z,5.25
2018-07-23T15:45:54.320Z,5.37
2018-07-23T15:48:23.484Z,4.92
2018-07-23T15:50:52.399Z,6.03
2018-07-23T15:53:21.462Z,5.67
2018-07-23T15:55:50.584Z,5.10
2018-07-23T15:58:19.730Z,5.42
2018-07-23T16:00:49.228Z,6.20
2018-07-23T16:03:18.355Z,6.10
2018-07-23T16:05:47.253Z,5.62
2018-07-23T16:08:16.289Z,5.60
2018-07-23T16:10:45.554Z,7.10
2018-07-23T16:13:14.675Z,5.95
2018-07-23T16:15:43.869Z,6.70
2018-07-23T16:18:13.041Z,6.58
2018-07-23T16:20:42.145Z,7.00
2018-07-23T16:23:11.010Z,6.72
2018-07-23T16:25:40.071Z,5.92
2018-07-23T16:28:09.258Z,6.30
2018-07-23T16:30:38.369Z,6.15
2018-07-23T16:33:07.566Z,7.50
2018-07-23T16:35:38.227Z,7.17
2018-07-23T16:38:07.386Z,6.80
2018-07-23T16:40:36.627Z,6.70
2018-07-23T16:43:05.817Z,6.00
2018-07-23T16:45:35.890Z,6.70
2018-07-23T16:48:05.315Z,6.17
2018-07-23T16:50:34.533Z,5.47
2018-07-23T16:53:03.647Z,4.57
2018-07-23T16:55:32.804Z,4.67
2018-07-23T16:58:01.959Z,4.43
2018-07-23T17:00:31.131Z,4.83
2018-07-23T17:03:00.308Z,4.30
2018-07-23T17:05:29.448Z,3.67
2018-07-23T17:07:58.620Z,3.80
2018-07-23T17:10:27.759Z,3.30
2018-07-23T17:12:56.895Z,3.13
2018-07-23T17:15:26.080Z,3.70
2018-07-23T17:17:55.284Z,2.90
2018-07-23T17:20:24.457Z,2.63
2018-07-23T17:22:53.646Z,2.80
2018-07-23T17:25:22.805Z,2.57
2018-07-23T17:27:52.136Z,3.13
2018-07-23T17:30:21.391Z,3.33
2018-07-23T17:32:50.638Z,2.90
2018-07-23T17:35:19.780Z,2.80
2018-07-23T17:37:48.950Z,2.70
2018-07-23T17:40:18.158Z,2.47
2018-07-23T17:42:47.251Z,2.53
2018-07-23T17:45:16.519Z,2.90
2018-07-23T17:47:45.606Z,2.47
2018-07-23T17:50:14.866Z,2.27
2018-07-23T17:52:43.984Z,2.17
2018-07-23T17:55:13.284Z,2.20
2018-07-23T17:57:42.423Z,2.00
2018-07-23T18:00:11.775Z,2.50
2018-07-23T18:02:40.979Z,2.30
2018-07-23T18:05:10.122Z,2.20
2018-07-23T18:07:39.322Z,2.40
2018-07-23T18:10:08.565Z,2.40
2018-07-23T18:12:37.744Z,2.37
2018-07-23T18:15:07.706Z,2.40
2018-07-23T18:17:36.559Z,2.37
2018-07-23T18:20:05.667Z,2.23
2018-07-23T18:22:34.803Z,2.57
2018-07-23T18:25:04.263Z,2.20
2018-07-23T18:27:33.445Z,1.77
2018-07-23T18:30:02.685Z,2.37
2018-07-23T18:32:31.891Z,2.30
2018-07-23T18:35:01.036Z,2.40
2018-07-23T18:37:30.151Z,2.30
2018-07-23T18:40:00.212Z,2.47
2018-07-23T18:42:29.316Z,2.13
2018-07-23T18:44:58.455Z,2.57
2018-07-23T18:47:27.642Z,3.47
2018-07-23T18:50:00.123Z,4.30
2018-07-23T18:52:30.899Z,5.73
2018-07-23T18:55:01.074Z,7.87
2018-07-23T18:57:30.795Z,4.93
2018-07-23T18:59:59.966Z,5.00
2018-07-23T19:02:29.140Z,4.40
2018-07-23T19:04:58.275Z,4.30
2018-07-23T19:07:27.456Z,4.63
2018-07-23T19:09:56.666Z,6.93
2018-07-23T19:12:25.795Z,3.80
2018-07-23T19:14:54.956Z,4.20
2018-07-23T19:17:24.106Z,3.27
2018-07-23T19:19:53.377Z,5.47
2018-07-23T19:22:22.556Z,5.43
2018-07-23T19:24:51.847Z,6.27
2018-07-23T19:27:21.034Z,4.53
2018-07-23T19:29:50.102Z,4.30
2018-07-23T19:32:19.324Z,4.20
2018-07-23T19:34:48.420Z,5.07
2018-07-23T19:37:17.638Z,8.53
2018-07-23T19:39:46.508Z,8.10
2018-07-23T19:42:15.604Z,6.67
2018-07-23T19:44:44.711Z,6.67
2018-07-23T19:47:13.881Z,17.77
2018-07-23T19:49:43.077Z,7.97
2018-07-23T19:52:12.340Z,7.50
2018-07-23T19:54:41.549Z,5.90
2018-07-23T19:57:10.774Z,7.13
2018-07-23T19:59:39.959Z,10.17
2018-07-23T20:02:09.070Z,13.37
2018-07-23T20:04:38.201Z,12.73
2018-07-23T20:07:07.392Z,12.80
2018-07-23T20:09:36.563Z,14.40
2018-07-23T20:12:05.722Z,10.30
2018-07-23T20:14:34.936Z,10.10
2018-07-23T20:17:04.135Z,9.47
2018-07-23T20:19:33.891Z,11.50
2018-07-23T20:22:03.199Z,12.37
2018-07-23T20:24:32.326Z,11.73
2018-07-23T20:27:02.158Z,11.97
2018-07-23T20:29:31.372Z,13.57
2018-07-23T20:32:00.487Z,13.40
2018-07-23T20:34:29.635Z,13.57
2018-07-23T20:36:58.833Z,14.87
2018-07-23T20:39:27.959Z,15.30
2018-07-23T20:41:57.390Z,15.03
2018-07-23T20:44:26.635Z,15.67
2018-07-23T20:46:55.867Z,15.20
2018-07-23T20:49:24.994Z,14.07
2018-07-23T20:51:54.228Z,13.33
2018-07-23T20:54:23.407Z,13.13
2018-07-23T20:56:52.726Z,13.67
2018-07-23T20:59:21.895Z,13.37
2018-07-23T21:01:50.995Z,14.00
2018-07-23T21:04:20.183Z,12.33
2018-07-23T21:06:49.320Z,11.63
2018-07-23T21:09:18.448Z,10.50
2018-07-23T21:11:48.023Z,10.93
2018-07-23T21:14:17.721Z,11.70
2018-07-23T21:16:46.864Z,13.10
2018-07-23T21:19:16.040Z,13.83
2018-07-23T21:21:45.247Z,13.53
2018-07-23T21:24:14.386Z,12.83
2018-07-23T21:26:43.548Z,13.03
2018-07-23T21:29:12.800Z,13.57
2018-07-23T21:31:42.024Z,13.67
2018-07-23T21:34:11.273Z,13.47
2018-07-23T21:36:40.347Z,12.53
2018-07-23T21:39:10.439Z,13.17
2018-07-23T21:41:39.887Z,11.13
2018-07-23T21:44:08.891Z,13.73
2018-07-23T21:46:38.031Z,14.20
2018-07-23T21:49:07.198Z,13.00
2018-07-23T21:51:36.347Z,12.50
2018-07-23T21:54:05.745Z,12.50
2018-07-23T21:56:34.884Z,12.90
2018-07-23T21:59:04.147Z,12.50
2018-07-23T22:01:33.278Z,12.10
2018-07-23T22:04:02.387Z,12.40
2018-07-23T22:06:31.527Z,13.13
2018-07-23T22:09:00.712Z,13.23
2018-07-23T22:11:30.579Z,13.17
2018-07-23T22:13:59.698Z,14.20
2018-07-23T22:16:28.815Z,12.90
2018-07-23T22:18:57.951Z,14.23
2018-07-23T22:21:27.108Z,14.40
2018-07-23T22:23:56.014Z,14.23
2018-07-23T22:26:25.062Z,13.10
2018-07-23T22:28:54.243Z,14.90
2018-07-23T22:31:23.490Z,13.63
2018-07-23T22:33:59.357Z,14.07
2018-07-23T22:36:28.455Z,12.30
2018-07-23T22:38:57.698Z,13.77
2018-07-23T22:41:26.822Z,13.53
2018-07-23T22:43:55.950Z,14.67
2018-07-23T22:46:25.093Z,12.80
2018-07-23T22:48:54.206Z,13.93
2018-07-23T22:51:23.407Z,13.23
2018-07-23T22:53:52.558Z,15.23
2018-07-23T22:56:21.699Z,17.70
2018-07-23T22:58:50.847Z,16.13
2018-07-23T23:01:20.302Z,15.83
2018-07-23T23:03:49.536Z,14.13
2018-07-23T23:06:19.666Z,15.03
2018-07-23T23:08:48.838Z,14.10
2018-07-23T23:11:17.926Z,14.63
2018-07-23T23:13:47.152Z,12.93
2018-07-23T23:16:16.267Z,12.97
2018-07-23T23:18:45.371Z,12.37
2018-07-23T23:21:14.482Z,13.50
2018-07-23T23:23:43.686Z,15.43
2018-07-23T23:26:12.875Z,14.87
2018-07-23T23:28:42.007Z,13.63
2018-07-23T23:31:11.144Z,13.13
2018-07-23T23:33:40.232Z,13.10
2018-07-23T23:36:09.498Z,13.87
2018-07-23T23:38:38.686Z,15.73
2018-07-23T23:41:07.843Z,15.97
2018-07-23T23:43:37.151Z,15.30
2018-07-23T23:46:06.293Z,14.47
2018-07-23T23:48:35.432Z,15.33
2018-07-23T23:51:04.546Z,13.40
2018-07-23T23:53:33.705Z,14.67
2018-07-23T23:56:02.813Z,14.90
2018-07-23T23:58:31.914Z,14.17
